Time;durP1;ratioP1;P1;durP2;ratioP2;P2;SDS_P1;SDS_P2;PMS_P1;PMS_P2;Temp;Humidity;BMP_temperature;BMP_pressure;BME280_temperature;BME280_humidity;BME280_pressure;Samples;Min_cycle;Max_cycle;Signal;HPM_P1;HPM_P2
2021/12/31 00:01:48;;;;;;;16.27;2.45;;;12.10;99.90;;;;;;4998172;28;20042;-81
2021/12/31 00:04:14;;;;;;;10.68;1.90;;;12.10;99.90;;;;;;4991737;28;20042;-79
2021/12/31 00:06:42;;;;;;;16.73;2.58;;;12.20;99.90;;;;;;4996857;28;20686;-78
2021/12/31 00:09:07;;;;;;;14.20;3.10;;;12.10;99.90;;;;;;4998721;28;20490;-80
2021/12/31 00:11:35;;;;;;;19.85;2.83;;;12.10;99.90;;;;;;4996480;28;20090;-81
2021/12/31 00:14:01;;;;;;;11.05;1.80;;;12.00;99.90;;;;;;4990463;28;20073;-80
2021/12/31 00:16:27;;;;;;;15.70;3.13;;;12.10;99.90;;;;;;4997629;28;20069;-79
2021/12/31 00:18:53;;;;;;;18.58;3.08;;;12.10;99.90;;;;;;5000603;28;20054;-80
2021/12/31 00:21:19;;;;;;;17.48;3.50;;;12.00;99.90;;;;;;4995267;28;20046;-79
2021/12/31 00:23:46;;;;;;;24.23;3.97;;;12.00;99.90;;;;;;5005346;28;20060;-80
2021/12/31 00:26:11;;;;;;;17.10;2.90;;;11.90;99.90;;;;;;4994371;28;20030;-80
2021/12/31 00:28:37;;;;;;;13.75;2.90;;;11.90;99.90;;;;;;4993400;28;20145;-79
2021/12/31 00:31:02;;;;;;;28.63;3.78;;;12.00;99.90;;;;;;4990014;28;20452;-79
2021/12/31 00:33:28;;;;;;;25.55;4.10;;;11.90;99.90;;;;;;4985667;28;20056;-81
2021/12/31 00:35:54;;;;;;;17.15;5.00;;;11.80;99.90;;;;;;4981705;28;20399;-80
2021/12/31 00:38:20;;;;;;;11.07;2.17;;;11.90;99.90;;;;;;4997490;28;20050;-80
2021/12/31 00:40:46;;;;;;;25.65;4.32;;;12.00;99.90;;;;;;4995634;28;20133;-79
2021/12/31 00:43:12;;;;;;;17.10;3.65;;;11.90;99.90;;;;;;4996751;28;20042;-81
2021/12/31 00:45:41;;;;;;;13.82;2.72;;;11.90;99.90;;;;;;4977201;28;20042;-79
2021/12/31 00:48:08;;;;;;;21.00;3.50;;;11.80;99.90;;;;;;5003273;28;20045;-79
2021/12/31 00:50:35;;;;;;;17.92;2.70;;;11.70;99.90;;;;;;5001813;28;20041;-81
2021/12/31 00:53:00;;;;;;;20.95;3.75;;;11.80;99.90;;;;;;5006088;28;20093;-80
2021/12/31 00:55:26;;;;;;;16.70;3.70;;;11.80;99.90;;;;;;5004028;28;20042;-82
2021/12/31 00:57:51;;;;;;;20.30;3.65;;;11.90;99.90;;;;;;4993752;28;20403;-81
2021/12/31 01:00:17;;;;;;;19.77;3.38;;;11.80;99.90;;;;;;4979149;28;20038;-79
2021/12/31 01:02:46;;;;;;;17.45;2.80;;;11.80;99.90;;;;;;4981294;28;20109;-81
2021/12/31 01:05:12;;;;;;;19.92;3.05;;;11.80;99.90;;;;;;4982620;28;20034;-81
2021/12/31 01:07:38;;;;;;;17.60;3.60;;;11.80;99.90;;;;;;5008478;28;20081;-80
2021/12/31 01:10:05;;;;;;;19.48;3.08;;;11.80;99.90;;;;;;5032346;28;20499;-81
2021/12/31 01:12:31;;;;;;;17.70;3.15;;;11.70;99.90;;;;;;4993408;28;20046;-81
2021/12/31 01:15:02;;;;;;;14.63;3.40;;;11.70;99.90;;;;;;4994375;28;20403;-80
2021/12/31 01:20:06;;;;;;;21.88;3.10;;;11.70;99.90;;;;;;5010022;28;20076;-80
2021/12/31 01:22:33;;;;;;;17.75;3.10;;;11.70;99.90;;;;;;5014494;28;20098;-81
2021/12/31 01:25:00;;;;;;;20.45;3.70;;;11.60;99.90;;;;;;5003053;28;20061;-79
2021/12/31 01:27:26;;;;;;;22.88;3.38;;;11.60;99.90;;;;;;5003529;28;20398;-81
2021/12/31 01:29:52;;;;;;;14.15;2.95;;;11.70;99.90;;;;;;4995601;28;20046;-81
2021/12/31 01:32:18;;;;;;;20.15;4.20;;;11.60;99.90;;;;;;5007194;28;20038;-80
2021/12/31 01:34:44;;;;;;;18.20;3.90;;;11.60;99.90;;;;;;5003502;28;20041;-81
2021/12/31 01:37:10;;;;;;;17.83;3.08;;;11.60;99.90;;;;;;5001227;28;20152;-81
2021/12/31 01:39:36;;;;;;;25.52;3.17;;;11.60;99.90;;;;;;5008290;28;20049;-81
2021/12/31 01:42:07;;;;;;;19.35;2.85;;;11.60;99.90;;;;;;4996998;28;20493;-81
2021/12/31 01:44:39;;;;;;;19.10;4.32;;;11.60;99.90;;;;;;4994109;28;20421;-80
2021/12/31 01:47:11;;;;;;;15.00;3.22;;;11.70;99.90;;;;;;4989788;28;20038;-80
2021/12/31 01:49:40;;;;;;;21.75;3.72;;;11.70;99.90;;;;;;4972878;28;20050;-81
2021/12/31 01:52:09;;;;;;;19.70;4.03;;;11.70;99.90;;;;;;4988997;28;20034;-81
2021/12/31 01:54:36;;;;;;;17.95;3.33;;;11.70;99.90;;;;;;4995021;28;20133;-80
2021/12/31 01:57:04;;;;;;;14.70;2.90;;;11.60;99.90;;;;;;5011843;28;20037;-82
2021/12/31 01:59:31;;;;;;;13.63;2.63;;;11.80;99.90;;;;;;4983617;28;20180;-78
2021/12/31 02:01:58;;;;;;;15.95;3.80;;;11.70;99.90;;;;;;4995584;28;20050;-80
2021/12/31 02:04:23;;;;;;;14.55;3.40;;;11.70;99.90;;;;;;4995271;28;20045;-81
2021/12/31 02:06:49;;;;;;;16.27;3.58;;;11.70;99.90;;;;;;4995003;28;20390;-79
2021/12/31 02:09:15;;;;;;;17.02;3.53;;;11.60;99.90;;;;;;4995538;28;20045;-82
2021/12/31 02:11:40;;;;;;;19.33;3.42;;;11.70;99.90;;;;;;4995390;28;20100;-80
2021/12/31 02:14:08;;;;;;;11.50;2.70;;;11.70;99.90;;;;;;4986490;28;20037;-81
2021/12/31 02:16:34;;;;;;;15.93;3.60;;;11.70;99.90;;;;;;4979027;28;20050;-81
2021/12/31 02:19:13;;;;;;;15.85;3.08;;;11.80;99.90;;;;;;4994777;28;20042;-78
2021/12/31 02:21:44;;;;;;;11.60;2.40;;;11.80;99.90;;;;;;4979208;28;20049;-79
2021/12/31 02:24:09;;;;;;;18.02;4.20;;;11.90;99.90;;;;;;4986730;28;20539;-80
2021/12/31 02:26:35;;;;;;;15.38;3.45;;;12.00;99.90;;;;;;4994621;28;20053;-80
2021/12/31 02:29:00;;;;;;;14.90;2.88;;;11.90;99.90;;;;;;4995439;28;20054;-81
2021/12/31 02:31:26;;;;;;;16.73;2.97;;;12.20;99.90;;;;;;4995117;28;20030;-80
2021/12/31 02:33:51;;;;;;;11.80;3.42;;;11.90;99.90;;;;;;4984175;28;20053;-78
2021/12/31 02:36:17;;;;;;;13.20;2.55;;;12.10;99.90;;;;;;4990379;28;20425;-81
2021/12/31 02:38:44;;;;;;;13.10;2.53;;;12.10;99.90;;;;;;5006525;28;20044;-80
2021/12/31 02:41:10;;;;;;;13.60;2.97;;;12.20;99.90;;;;;;4982810;28;20050;-80
2021/12/31 02:43:37;;;;;;;15.07;3.38;;;12.20;99.90;;;;;;5000676;28;20560;-79
2021/12/31 02:46:02;;;;;;;11.57;3.28;;;12.30;99.90;;;;;;5001488;28;20173;-81
2021/12/31 02:48:28;;;;;;;13.43;2.90;;;12.30;99.90;;;;;;5003782;28;20124;-81
2021/12/31 02:50:56;;;;;;;14.15;2.97;;;12.30;99.90;;;;;;5001826;28;20034;-82
2021/12/31 02:53:39;;;;;;;10.38;2.60;;;12.30;99.90;;;;;;4998088;28;20050;-82
2021/12/31 02:56:11;;;;;;;9.45;2.13;;;12.20;99.90;;;;;;5005434;28;20045;-80
2021/12/31 02:58:38;;;;;;;11.60;2.55;;;12.30;99.90;;;;;;4982254;28;20058;-81
2021/12/31 03:01:05;;;;;;;15.43;3.00;;;13.00;99.90;;;;;;4994496;28;20041;-81
2021/12/31 03:03:33;;;;;;;15.05;3.08;;;12.20;99.90;;;;;;5003057;28;20061;-81
2021/12/31 03:05:59;;;;;;;10.02;2.22;;;11.60;99.90;;;;;;4996025;28;20049;-81
2021/12/31 03:08:31;;;;;;;23.73;3.25;;;12.30;99.90;;;;;;5003795;28;20453;-81
2021/12/31 03:10:58;;;;;;;9.63;2.63;;;12.40;99.90;;;;;;5002228;28;20041;-81
2021/12/31 03:13:24;;;;;;;14.52;2.88;;;12.40;99.90;;;;;;5002972;28;20501;-78
2021/12/31 03:15:52;;;;;;;10.32;2.58;;;12.40;99.90;;;;;;5001225;28;20088;-79
2021/12/31 03:18:18;;;;;;;9.55;2.05;;;12.40;99.90;;;;;;5003150;28;20053;-78
2021/12/31 03:20:57;;;;;;;12.48;1.45;;;12.40;99.90;;;;;;5002604;28;20163;-79
2021/12/31 03:23:24;;;;;;;5.93;1.65;;;12.50;99.90;;;;;;5000493;28;20041;-78
2021/12/31 03:25:50;;;;;;;10.07;2.75;;;12.50;99.90;;;;;;4998170;28;20362;-81
2021/12/31 03:28:15;;;;;;;7.50;1.92;;;12.50;99.90;;;;;;5018759;28;20049;-79
2021/12/31 03:30:41;;;;;;;9.30;1.50;;;12.50;99.90;;;;;;4977586;28;20045;-81
2021/12/31 03:33:06;;;;;;;16.42;2.63;;;12.50;99.90;;;;;;4997287;28;20038;-81
2021/12/31 03:35:32;;;;;;;6.97;2.00;;;12.50;99.90;;;;;;4992819;28;20052;-78
2021/12/31 03:37:58;;;;;;;8.40;2.20;;;13.00;99.90;;;;;;4997996;28;20054;-81
2021/12/31 03:40:23;;;;;;;10.40;2.25;;;12.40;99.90;;;;;;4985313;28;20076;-81
2021/12/31 03:42:49;;;;;;;14.85;2.83;;;12.40;99.90;;;;;;4987853;28;20050;-79
2021/12/31 03:45:15;;;;;;;14.68;2.10;;;12.50;99.90;;;;;;4999121;28;20050;-81
2021/12/31 03:47:40;;;;;;;8.57;1.63;;;12.40;99.90;;;;;;5004222;28;20049;-81
2021/12/31 03:50:06;;;;;;;11.93;2.13;;;12.40;99.90;;;;;;4983085;28;20088;-82
2021/12/31 03:52:36;;;;;;;11.20;2.28;;;12.40;99.90;;;;;;4995377;28;20049;-80
2021/12/31 03:55:02;;;;;;;6.47;1.52;;;12.40;99.90;;;;;;5019342;28;20099;-79
2021/12/31 03:57:28;;;;;;;11.40;1.88;;;12.40;99.90;;;;;;4983982;28;20137;-81
2021/12/31 03:59:54;;;;;;;8.75;2.15;;;12.40;99.90;;;;;;4979669;28;20482;-81
2021/12/31 04:02:20;;;;;;;9.10;1.80;;;12.30;99.90;;;;;;4994980;28;20045;-79
2021/12/31 04:04:45;;;;;;;12.27;2.25;;;13.40;99.90;;;;;;4998079;28;20046;-81
2021/12/31 04:07:11;;;;;;;15.07;2.60;;;12.40;99.90;;;;;;4995939;28;20044;-81
2021/12/31 04:09:36;;;;;;;10.27;1.85;;;12.40;99.90;;;;;;4982581;28;20052;-81
2021/12/31 04:12:02;;;;;;;12.02;2.13;;;12.40;99.90;;;;;;4979962;28;20048;-80
2021/12/31 04:14:28;;;;;;;9.13;2.05;;;12.40;99.90;;;;;;4993402;28;20041;-80
2021/12/31 04:16:53;;;;;;;10.73;2.45;;;12.40;99.90;;;;;;4997434;28;20120;-81
2021/12/31 04:19:19;;;;;;;8.65;1.88;;;12.50;99.90;;;;;;4996873;28;20050;-81
2021/12/31 04:21:44;;;;;;;13.77;3.00;;;12.50;99.90;;;;;;4979439;28;20042;-79
2021/12/31 04:24:28;;;;;;;9.45;1.83;;;12.40;99.90;;;;;;4977453;28;20042;-80
2021/12/31 04:26:54;;;;;;;6.20;1.63;;;12.40;99.90;;;;;;4983564;28;20048;-80
2021/12/31 04:29:20;;;;;;;11.50;2.47;;;12.50;99.90;;;;;;4995871;28;20050;-81
2021/12/31 04:31:45;;;;;;;9.18;1.80;;;12.60;99.90;;;;;;4994426;28;20490;-81
2021/12/31 04:34:11;;;;;;;11.23;2.08;;;12.60;99.90;;;;;;5003783;28;20057;-80
2021/12/31 04:36:37;;;;;;;6.88;1.73;;;12.60;99.90;;;;;;5002334;28;20515;-82
2021/12/31 04:39:03;;;;;;;7.68;1.88;;;12.60;99.90;;;;;;5000348;28;20137;-82
2021/12/31 04:41:28;;;;;;;7.65;2.05;;;12.70;99.90;;;;;;4998037;28;20050;-80
2021/12/31 04:43:54;;;;;;;12.68;1.98;;;12.70;99.90;;;;;;4985150;28;20049;-81
2021/12/31 04:46:20;;;;;;;8.57;2.38;;;12.70;99.90;;;;;;4997388;28;20482;-78
2021/12/31 04:48:45;;;;;;;7.68;1.80;;;12.70;99.90;;;;;;5004567;28;20481;-77
2021/12/31 04:51:11;;;;;;;8.15;1.77;;;12.70;99.90;;;;;;4983970;28;20077;-83
2021/12/31 04:53:37;;;;;;;9.20;1.67;;;12.70;99.90;;;;;;4996836;28;20385;-81
2021/12/31 04:56:03;;;;;;;8.20;1.83;;;12.60;99.90;;;;;;4993093;28;20124;-78
2021/12/31 04:58:28;;;;;;;9.07;1.73;;;12.70;99.90;;;;;;4991133;28;20065;-82
2021/12/31 05:00:54;;;;;;;7.35;2.45;;;12.70;99.90;;;;;;4996225;28;20479;-82
2021/12/31 05:03:20;;;;;;;9.18;1.50;;;12.70;99.90;;;;;;4997228;28;20084;-82
2021/12/31 05:05:46;;;;;;;6.25;1.08;;;12.60;99.90;;;;;;4985296;28;20123;-83
2021/12/31 05:08:11;;;;;;;6.78;1.35;;;12.60;99.90;;;;;;4998478;28;20053;-81
2021/12/31 05:10:37;;;;;;;6.63;2.28;;;12.60;99.90;;;;;;5002447;28;20446;-82
2021/12/31 05:13:04;;;;;;;8.70;2.00;;;12.50;99.90;;;;;;4997261;28;20079;-80
2021/12/31 05:15:34;;;;;;;7.05;1.42;;;12.50;99.90;;;;;;5007029;28;20042;-79
2021/12/31 05:18:00;;;;;;;6.75;1.80;;;12.50;99.90;;;;;;4985827;28;20152;-83
2021/12/31 05:20:26;;;;;;;5.95;1.52;;;12.80;99.90;;;;;;5001641;28;20489;-82
2021/12/31 05:22:52;;;;;;;5.38;1.70;;;12.30;99.90;;;;;;5005472;28;20482;-82
2021/12/31 05:25:19;;;;;;;8.07;1.98;;;12.30;99.90;;;;;;4996104;28;20100;-81
2021/12/31 05:27:44;;;;;;;7.78;2.10;;;12.30;99.90;;;;;;4996054;28;20046;-82
2021/12/31 05:30:10;;;;;;;8.32;1.70;;;12.20;99.90;;;;;;4995721;28;20046;-82
2021/12/31 05:32:36;;;;;;;5.93;2.10;;;12.20;99.90;;;;;;4998213;28;20128;-83
2021/12/31 05:35:02;;;;;;;11.23;2.28;;;12.20;99.90;;;;;;4981355;28;20049;-79
2021/12/31 05:37:27;;;;;;;5.35;1.80;;;12.50;99.90;;;;;;4997983;28;20080;-82
2021/12/31 05:39:53;;;;;;;8.05;2.00;;;12.20;99.90;;;;;;4996197;28;20046;-80
2021/12/31 05:42:18;;;;;;;8.02;1.90;;;12.20;99.90;;;;;;5001158;28;20042;-81
2021/12/31 05:44:44;;;;;;;6.85;1.88;;;12.20;99.90;;;;;;4986541;28;20042;-82
2021/12/31 05:47:11;;;;;;;3.72;1.38;;;12.20;99.90;;;;;;4987738;28;20048;-80
2021/12/31 05:49:36;;;;;;;7.03;2.08;;;12.30;99.90;;;;;;5003701;28;20050;-82
2021/12/31 05:52:03;;;;;;;5.20;2.30;;;12.30;99.90;;;;;;5004086;28;20037;-80
2021/12/31 05:54:28;;;;;;;6.65;2.20;;;12.30;99.90;;;;;;4999284;28;20049;-82
2021/12/31 05:56:54;;;;;;;5.30;1.80;;;12.30;99.90;;;;;;4986083;28;20478;-82
2021/12/31 05:59:19;;;;;;;6.50;2.45;;;12.30;99.90;;;;;;4996182;28;20112;-79
2021/12/31 06:01:46;;;;;;;6.30;2.30;;;12.30;99.90;;;;;;4995777;28;20050;-83
2021/12/31 06:04:11;;;;;;;6.43;2.70;;;12.40;99.90;;;;;;4998664;28;20037;-81
2021/12/31 06:06:37;;;;;;;11.40;2.50;;;12.40;99.90;;;;;;5004668;28;20600;-82
2021/12/31 06:09:06;;;;;;;6.35;2.13;;;12.40;99.90;;;;;;4981337;28;20099;-81
2021/12/31 06:11:32;;;;;;;4.40;2.08;;;12.40;99.90;;;;;;5003981;28;20184;-81
2021/12/31 06:14:01;;;;;;;7.25;2.72;;;12.40;99.90;;;;;;5001668;28;20138;-82
2021/12/31 06:16:29;;;;;;;7.50;2.47;;;12.40;99.90;;;;;;5001654;28;20160;-82
2021/12/31 06:18:55;;;;;;;8.35;2.45;;;12.40;99.90;;;;;;4992962;28;20056;-82
2021/12/31 06:21:21;;;;;;;3.67;1.63;;;12.50;99.90;;;;;;4995472;28;20117;-82
2021/12/31 06:23:46;;;;;;;8.00;2.00;;;12.60;99.90;;;;;;5006500;28;20049;-82
2021/12/31 06:26:13;;;;;;;5.65;1.95;;;12.50;99.90;;;;;;4991439;28;20041;-83
2021/12/31 06:28:39;;;;;;;4.65;2.03;;;12.50;99.90;;;;;;4986237;28;20133;-83
2021/12/31 06:31:04;;;;;;;7.30;2.03;;;12.50;99.90;;;;;;5002251;28;20128;-81
2021/12/31 06:33:30;;;;;;;5.80;1.98;;;12.50;99.90;;;;;;4978041;28;20077;-82
2021/12/31 06:35:55;;;;;;;4.38;2.08;;;12.50;99.90;;;;;;4999300;28;20046;-82
2021/12/31 06:38:21;;;;;;;5.78;2.25;;;12.40;99.90;;;;;;4986344;28;20048;-81
2021/12/31 06:40:47;;;;;;;6.10;1.70;;;12.30;99.90;;;;;;5017183;28;20038;-82
2021/12/31 06:43:12;;;;;;;6.70;1.95;;;12.30;99.90;;;;;;5020463;28;20052;-79
2021/12/31 06:45:38;;;;;;;3.17;1.48;;;12.30;99.90;;;;;;5005676;28;20120;-82
2021/12/31 06:48:04;;;;;;;3.95;1.52;;;12.40;99.90;;;;;;5004974;28;20120;-81
2021/12/31 06:50:30;;;;;;;3.83;1.77;;;12.40;99.90;;;;;;5013216;28;20477;-81
2021/12/31 06:52:55;;;;;;;4.68;1.75;;;12.40;99.90;;;;;;5002588;28;20052;-83
2021/12/31 06:55:21;;;;;;;3.22;1.60;;;12.40;99.90;;;;;;4977738;28;20076;-79
2021/12/31 06:57:49;;;;;;;4.80;1.55;;;12.40;99.90;;;;;;5002090;28;20081;-79
2021/12/31 07:00:15;;;;;;;8.68;2.15;;;12.40;99.90;;;;;;5005366;28;20068;-80
2021/12/31 07:02:41;;;;;;;3.30;1.83;;;12.30;99.90;;;;;;4993640;28;20038;-80
2021/12/31 07:05:07;;;;;;;4.95;1.52;;;12.30;99.90;;;;;;4995416;28;20497;-82
2021/12/31 07:07:32;;;;;;;5.55;1.40;;;12.30;99.90;;;;;;5003984;28;20056;-84
2021/12/31 07:09:58;;;;;;;2.97;1.17;;;12.30;99.90;;;;;;5004509;28;20050;-84
2021/12/31 07:12:24;;;;;;;4.00;1.55;;;12.30;99.90;;;;;;5009765;28;20042;-85
2021/12/31 07:14:49;;;;;;;6.32;1.63;;;12.30;99.90;;;;;;4997355;28;20096;-79
2021/12/31 07:17:15;;;;;;;6.40;1.83;;;12.40;99.90;;;;;;5018055;28;20056;-78
2021/12/31 07:19:43;;;;;;;6.50;1.92;;;12.30;99.90;;;;;;5021670;28;20050;-79
2021/12/31 07:22:09;;;;;;;2.35;1.05;;;12.20;99.90;;;;;;4993227;28;20053;-81
2021/12/31 07:24:34;;;;;;;10.95;5.85;;;12.20;99.90;;;;;;4300492;28;10000749;-82
2021/12/31 07:27:00;;;;;;;4.57;1.75;;;12.30;99.90;;;;;;4993813;28;20046;-82
2021/12/31 07:29:25;;;;;;;6.82;1.40;;;12.20;99.90;;;;;;4976790;28;20038;-81
2021/12/31 07:31:51;;;;;;;5.05;1.50;;;12.20;99.90;;;;;;4979487;28;20034;-82
2021/12/31 07:34:17;;;;;;;3.78;1.35;;;12.20;99.90;;;;;;4991491;28;20049;-82
2021/12/31 07:36:42;;;;;;;5.43;1.25;;;12.20;99.90;;;;;;5026425;28;20048;-82
2021/12/31 07:39:10;;;;;;;2.65;1.40;;;12.10;99.90;;;;;;5025618;28;20078;-82
2021/12/31 07:41:35;;;;;;;4.57;1.25;;;12.10;99.90;;;;;;5009181;28;20554;-81
2021/12/31 07:44:01;;;;;;;2.53;1.27;;;12.10;99.90;;;;;;4974739;28;20128;-81
2021/12/31 07:46:27;;;;;;;7.78;1.50;;;12.10;99.90;;;;;;5016227;28;20034;-81
2021/12/31 07:48:52;;;;;;;4.97;1.65;;;12.10;99.90;;;;;;4985484;28;20053;-79
2021/12/31 07:51:18;;;;;;;3.75;1.40;;;12.10;99.90;;;;;;4973907;28;20070;-80
2021/12/31 07:53:44;;;;;;;6.28;1.65;;;12.00;99.90;;;;;;5010397;28;20050;-83
2021/12/31 07:56:10;;;;;;;3.70;1.08;;;12.00;99.90;;;;;;4991814;28;20046;-83
2021/12/31 07:58:35;;;;;;;6.93;1.63;;;12.00;99.90;;;;;;4991393;28;20073;-82
2021/12/31 08:01:01;;;;;;;7.82;2.30;;;12.00;99.90;;;;;;4991106;28;20068;-81
2021/12/31 08:03:27;;;;;;;7.70;2.08;;;12.10;99.90;;;;;;4992760;28;20100;-81
2021/12/31 08:05:53;;;;;;;4.43;1.42;;;12.10;99.90;;;;;;4992593;28;20129;-81
2021/12/31 08:08:19;;;;;;;3.50;1.40;;;12.20;99.90;;;;;;4993339;28;20042;-80
2021/12/31 08:10:45;;;;;;;6.05;1.67;;;12.20;99.90;;;;;;5008971;28;20037;-80
2021/12/31 08:13:11;;;;;;;2.25;1.40;;;12.20;99.90;;;;;;5025592;28;20046;-82
2021/12/31 08:15:37;;;;;;;3.88;1.60;;;12.20;99.90;;;;;;4974024;28;20656;-85
2021/12/31 08:18:03;;;;;;;2.30;1.00;;;12.30;99.90;;;;;;4989937;28;20104;-81
2021/12/31 08:20:28;;;;;;;2.42;1.42;;;12.20;99.90;;;;;;4990342;28;20046;-79
2021/12/31 08:22:54;;;;;;;5.72;2.03;;;12.20;99.90;;;;;;4975730;28;20066;-83
2021/12/31 08:25:20;;;;;;;3.70;1.10;;;12.20;99.90;;;;;;4976133;28;20142;-83
2021/12/31 08:27:46;;;;;;;3.55;1.15;;;12.20;99.90;;;;;;4978125;28;20141;-84
2021/12/31 08:30:12;;;;;;;5.00;1.73;;;12.20;99.90;;;;;;4977511;28;20486;-86
2021/12/31 08:32:38;;;;;;;6.13;1.60;;;12.20;99.90;;;;;;4972482;28;20518;-82
2021/12/31 08:35:07;;;;;;;4.10;1.45;;;12.20;99.90;;;;;;4993129;28;20556;-82
2021/12/31 08:37:32;;;;;;;2.97;1.60;;;12.20;99.90;;;;;;4993476;28;20050;-83
2021/12/31 08:39:58;;;;;;;3.88;1.67;;;12.20;99.90;;;;;;4992598;28;20045;-83
2021/12/31 08:42:25;;;;;;;4.97;1.45;;;12.10;99.90;;;;;;4992820;28;20042;-84
2021/12/31 08:44:51;;;;;;;4.15;1.55;;;12.20;99.90;;;;;;4991866;28;20372;-80
2021/12/31 08:47:17;;;;;;;4.88;1.83;;;12.90;99.90;;;;;;4993071;28;20034;-85
2021/12/31 08:49:43;;;;;;;4.63;1.95;;;12.30;99.90;;;;;;4977531;28;20514;-79
2021/12/31 08:52:08;;;;;;;4.22;1.60;;;12.30;99.90;;;;;;4993173;28;20092;-85
2021/12/31 08:54:35;;;;;;;7.40;1.70;;;12.40;99.90;;;;;;4973086;28;20050;-81
2021/12/31 08:57:01;;;;;;;6.72;1.85;;;12.40;99.90;;;;;;4993049;28;20053;-81
2021/12/31 08:59:27;;;;;;;9.60;2.17;;;12.30;99.90;;;;;;4976730;28;20038;-84
2021/12/31 09:01:52;;;;;;;3.95;2.03;;;12.30;99.90;;;;;;4992385;28;20089;-84
2021/12/31 09:04:18;;;;;;;3.05;1.85;;;12.20;99.90;;;;;;4976312;28;20073;-79
2021/12/31 09:06:44;;;;;;;11.40;2.28;;;12.30;99.90;;;;;;4993229;28;20062;-79
2021/12/31 09:09:09;;;;;;;3.10;1.60;;;12.30;99.90;;;;;;4975982;28;20392;-83
2021/12/31 09:11:35;;;;;;;3.28;1.52;;;12.30;99.90;;;;;;4973502;28;20113;-81
2021/12/31 09:14:01;;;;;;;10.45;2.35;;;12.30;99.90;;;;;;4991833;28;20513;-81
2021/12/31 09:16:26;;;;;;;7.43;1.98;;;12.30;99.90;;;;;;4976476;28;20057;-79
2021/12/31 09:18:52;;;;;;;3.47;1.85;;;12.30;99.90;;;;;;4976665;28;20188;-80
2021/12/31 09:21:19;;;;;;;5.40;1.60;;;12.20;99.90;;;;;;4993433;28;20065;-78
2021/12/31 09:23:45;;;;;;;6.50;1.60;;;12.20;99.90;;;;;;4993046;28;20072;-80
2021/12/31 09:26:11;;;;;;;6.35;2.55;;;12.20;99.90;;;;;;4976300;28;20413;-80
2021/12/31 09:28:36;;;;;;;5.30;1.80;;;12.20;99.90;;;;;;4972694;28;20042;-77
2021/12/31 09:31:03;;;;;;;5.78;2.22;;;12.20;99.90;;;;;;4971567;28;20042;-81
2021/12/31 09:33:29;;;;;;;5.43;2.88;;;12.20;99.90;;;;;;4974844;28;20050;-79
2021/12/31 09:35:55;;;;;;;3.47;1.58;;;12.20;99.90;;;;;;4992263;28;20038;-80
2021/12/31 09:38:21;;;;;;;6.30;2.47;;;13.40;99.90;;;;;;4976407;28;20050;-79
2021/12/31 09:40:47;;;;;;;6.05;2.65;;;12.10;99.90;;;;;;4977255;28;20044;-80
2021/12/31 09:43:13;;;;;;;4.10;1.85;;;12.00;99.90;;;;;;4991682;28;20161;-84
2021/12/31 09:45:42;;;;;;;4.05;1.88;;;12.10;99.90;;;;;;4974772;28;20130;-79
2021/12/31 09:48:09;;;;;;;5.85;2.28;;;12.20;99.90;;;;;;5025123;28;20081;-82
2021/12/31 09:50:38;;;;;;;6.20;1.50;;;12.60;99.90;;;;;;4991417;28;20057;-84
2021/12/31 09:53:05;;;;;;;9.80;2.33;;;12.10;99.90;;;;;;4975609;28;20505;-81
2021/12/31 09:55:40;;;;;;;5.57;1.77;;;12.10;99.90;;;;;;4992272;28;20039;-77
2021/12/31 09:58:09;;;;;;;7.97;2.05;;;12.20;99.90;;;;;;4975849;28;20046;-84
2021/12/31 10:00:42;;;;;;;3.83;1.70;;;12.20;99.90;;;;;;4984986;28;20149;-86
2021/12/31 10:03:13;;;;;;;4.32;1.90;;;12.10;99.90;;;;;;4974770;28;20049;-82
2021/12/31 10:05:51;;;;;;;3.20;1.33;;;12.20;99.90;;;;;;4975944;28;20050;-81
2021/12/31 10:08:19;;;;;;;6.65;1.67;;;12.10;99.90;;;;;;4992664;28;20136;-84
2021/12/31 10:11:07;;;;;;;4.03;1.70;;;12.10;99.90;;;;;;4991564;28;20157;-81
2021/12/31 10:13:39;;;;;;;7.55;1.95;;;12.10;99.90;;;;;;4977877;28;20059;-81
2021/12/31 10:16:05;;;;;;;4.75;1.63;;;12.10;99.90;;;;;;4992494;28;20085;-83
2021/12/31 10:18:34;;;;;;;4.50;2.10;;;12.00;99.90;;;;;;4993089;28;20058;-84
2021/12/31 10:21:00;;;;;;;7.30;2.65;;;12.00;99.90;;;;;;4975815;28;20049;-81
2021/12/31 10:23:26;;;;;;;5.45;2.22;;;11.90;99.90;;;;;;4997434;28;20517;-80
2021/12/31 10:26:12;;;;;;;9.48;1.90;;;11.90;99.90;;;;;;4996837;28;20054;-81
2021/12/31 10:28:55;;;;;;;4.55;1.40;;;11.90;99.90;;;;;;4985313;28;20417;-81
2021/12/31 10:31:20;;;;;;;7.25;2.13;;;11.90;99.90;;;;;;4978887;28;20042;-80
2021/12/31 10:33:49;;;;;;;9.23;2.53;;;11.60;99.90;;;;;;4995956;28;20383;-82
2021/12/31 10:36:35;;;;;;;5.00;2.60;;;11.70;99.90;;;;;;4994183;28;20451;-87
2021/12/31 10:39:15;;;;;;;9.48;2.70;;;12.60;99.90;;;;;;5007336;28;20038;-86
2021/12/31 10:41:50;;;;;;;5.13;2.17;;;11.80;99.90;;;;;;4992550;28;20038;-83
2021/12/31 10:44:15;;;;;;;11.52;3.35;;;12.30;99.90;;;;;;4990671;28;20507;-86
2021/12/31 10:46:41;;;;;;;5.63;2.67;;;11.10;99.90;;;;;;4990850;28;20062;-85
2021/12/31 10:49:11;;;;;;;8.00;2.90;;;11.30;99.90;;;;;;4974854;28;20046;-88
2021/12/31 10:51:43;;;;;;;4.57;2.58;;;11.60;99.90;;;;;;4990985;28;20140;-83
2021/12/31 10:54:32;;;;;;;5.10;2.65;;;11.60;99.90;;;;;;4990704;28;20049;-82
2021/12/31 10:56:59;;;;;;;6.72;2.20;;;11.60;99.90;;;;;;4990301;28;20046;-82
2021/12/31 10:59:25;;;;;;;7.20;2.53;;;11.60;99.90;;;;;;4990563;28;20117;-82
2021/12/31 11:01:51;;;;;;;4.95;2.63;;;11.60;99.90;;;;;;4974107;28;20129;-81
2021/12/31 11:04:21;;;;;;;12.07;3.00;;;12.40;99.90;;;;;;4990964;28;20089;-82
2021/12/31 11:06:47;;;;;;;7.03;3.10;;;11.50;99.90;;;;;;4990554;28;20322;-82
2021/12/31 11:09:14;;;;;;;7.10;3.00;;;11.50;99.90;;;;;;4974441;28;20087;-84
2021/12/31 11:11:42;;;;;;;13.85;3.90;;;12.70;99.90;;;;;;5022828;28;20034;-81
2021/12/31 11:14:09;;;;;;;5.07;3.72;;;11.60;99.90;;;;;;4973317;28;20047;-86
2021/12/31 11:39:37;;;;;;;8.88;3.85;;;11.50;99.90;;;;;;4972817;28;20178;-86
2021/12/31 11:42:05;;;;;;;11.05;3.67;;;11.40;99.90;;;;;;5019791;28;20096;-86
2021/12/31 11:44:32;;;;;;;9.38;3.17;;;11.40;99.90;;;;;;4995892;28;20045;-86
2021/12/31 11:47:14;;;;;;;10.55;3.53;;;11.40;99.90;;;;;;5025853;28;20076;-89
2021/12/31 11:49:40;;;;;;;10.18;3.38;;;11.40;99.90;;;;;;4995318;28;20060;-85
2021/12/31 11:52:13;;;;;;;6.68;3.45;;;11.40;99.90;;;;;;4996614;28;20040;-84
2021/12/31 11:54:40;;;;;;;11.73;3.90;;;11.30;99.90;;;;;;4998106;28;20041;-87
2021/12/31 11:57:27;;;;;;;12.43;3.85;;;11.20;99.90;;;;;;5015950;28;20041;-90
2021/12/31 11:59:54;;;;;;;6.95;3.17;;;11.00;99.90;;;;;;5014216;28;20041;-87
2021/12/31 12:02:31;;;;;;;4.07;2.90;;;12.70;99.90;;;;;;5000863;28;20054;-91
2021/12/31 12:05:02;;;;;;;8.32;3.28;;;11.30;99.90;;;;;;5016228;28;20051;-84
2021/12/31 12:07:36;;;;;;;8.13;3.42;;;13.00;99.90;;;;;;5019804;28;20049;-87
2021/12/31 12:10:02;;;;;;;7.72;2.85;;;11.20;99.90;;;;;;5014370;28;20033;-82
2021/12/31 12:12:31;;;;;;;12.77;3.60;;;11.20;99.90;;;;;;5010541;28;20549;-82
2021/12/31 12:14:59;;;;;;;6.13;3.28;;;11.10;99.90;;;;;;5049989;28;20091;-85
2021/12/31 12:17:30;;;;;;;6.28;2.40;;;11.20;99.90;;;;;;4998392;28;20064;-81
2021/12/31 12:20:02;;;;;;;5.40;2.72;;;11.10;99.90;;;;;;5013156;28;20464;-89
2021/12/31 12:22:40;;;;;;;6.38;2.35;;;11.10;99.90;;;;;;5017267;28;20132;-80
2021/12/31 12:25:18;;;;;;;9.05;2.80;;;11.20;99.90;;;;;;5030636;28;20041;-79
2021/12/31 12:27:47;;;;;;;9.18;4.80;;;11.20;99.90;;;;;;5037295;28;20040;-81
2021/12/31 12:30:14;;;;;;;5.70;3.63;;;11.10;99.90;;;;;;5014643;28;20117;-89
2021/12/31 12:32:53;;;;;;;4.97;2.63;;;11.10;99.90;;;;;;5029952;28;20057;-81
2021/12/31 12:35:22;;;;;;;4.78;2.47;;;11.10;99.90;;;;;;5016560;28;20114;-82
2021/12/31 12:37:58;;;;;;;5.00;2.60;;;11.10;99.90;;;;;;4997754;28;20044;-80
2021/12/31 12:41:02;;;;;;;6.07;2.17;;;11.10;99.90;;;;;;5043234;28;20129;-90
2021/12/31 12:43:35;;;;;;;3.33;2.65;;;11.10;99.90;;;;;;4995623;28;20048;-90
2021/12/31 12:46:06;;;;;;;3.03;2.60;;;11.10;99.90;;;;;;4996656;28;20034;-83
2021/12/31 12:48:38;;;;;;;3.95;2.30;;;11.20;99.90;;;;;;5012380;28;20042;-83
2021/12/31 12:51:11;;;;;;;5.68;2.33;;;11.20;99.90;;;;;;5014172;28;20071;-82
2021/12/31 12:53:39;;;;;;;3.58;3.08;;;11.10;99.90;;;;;;5031667;28;20046;-86
2021/12/31 12:56:16;;;;;;;2.20;1.77;;;11.10;99.90;;;;;;5016183;28;20121;-85
2021/12/31 12:58:51;;;;;;;4.78;2.15;;;11.20;99.90;;;;;;5015340;28;20041;-79
2021/12/31 13:01:16;;;;;;;6.63;1.92;;;11.10;99.90;;;;;;5028337;28;20478;-80
2021/12/31 13:03:55;;;;;;;3.67;2.03;;;12.10;99.90;;;;;;5031515;28;20056;-84
2021/12/31 13:06:25;;;;;;;3.80;2.10;;;13.90;99.90;;;;;;5036360;28;20223;-80
2021/12/31 13:09:01;;;;;;;5.95;2.20;;;12.30;99.90;;;;;;5057238;28;20080;-79
2021/12/31 13:11:28;;;;;;;3.08;1.10;;;11.10;99.90;;;;;;5010514;28;20055;-80